Time;durP1;ratioP1;P1;durP2;ratioP2;P2;SDS_P1;SDS_P2;PMS_P1;PMS_P2;Temp;Humidity;BMP_temperature;BMP_pressure;BME280_temperature;BME280_humidity;BME280_pressure;Samples;Min_cycle;Max_cycle;Signal;HPM_P1;HPM_P2
2021/10/04 00:01:03;;;;;;;4.85;4.38;;;;;;;17.22;70.01;100520.38;5010768;28;20075;-45
2021/10/04 00:03:28;;;;;;;5.10;4.70;;;;;;;17.23;70.13;100521.22;5009566;28;20443;-44
2021/10/04 00:05:53;;;;;;;5.53;5.03;;;;;;;17.21;70.02;100529.28;5011099;28;20029;-45
2021/10/04 00:08:19;;;;;;;5.40;4.90;;;;;;;17.21;69.97;100531.97;5010248;28;20084;-45
2021/10/04 00:10:44;;;;;;;5.57;5.07;;;;;;;17.22;70.09;100547.00;5010585;28;20022;-45
2021/10/04 00:13:09;;;;;;;5.15;4.75;;;;;;;17.22;70.04;100552.34;5008725;28;20060;-45
2021/10/04 00:15:34;;;;;;;4.55;4.15;;;;;;;17.21;70.06;100555.94;5009257;28;20387;-45
2021/10/04 00:18:00;;;;;;;5.43;4.93;;;;;;;17.22;70.07;100557.69;5010592;28;20061;-45
2021/10/04 00:20:26;;;;;;;4.75;4.35;;;;;;;17.22;70.05;100564.78;5010426;28;20635;-45
2021/10/04 00:22:55;;;;;;;4.45;4.05;;;;;;;17.21;70.11;100561.28;5009618;28;20030;-45
2021/10/04 00:25:21;;;;;;;5.03;4.53;;;;;;;17.21;70.15;100558.63;5008148;28;20038;-45
2021/10/04 00:27:46;;;;;;;4.72;4.32;;;;;;;17.23;69.87;100566.53;5010331;28;20088;-45
2021/10/04 00:30:12;;;;;;;5.15;4.75;;;;;;;17.23;69.91;100566.53;5008945;28;20037;-45
2021/10/04 00:32:40;;;;;;;4.10;3.80;;;;;;;17.21;69.99;100569.28;5010379;28;20443;-45
2021/10/04 00:35:06;;;;;;;5.07;4.57;;;;;;;17.21;70.07;100571.94;5009639;28;20037;-45
2021/10/04 00:37:32;;;;;;;3.97;3.67;;;;;;;17.22;70.09;100573.66;5009562;28;20045;-45
2021/10/04 00:39:57;;;;;;;4.80;4.28;;;;;;;17.23;69.92;100578.06;5010216;28;20037;-44
2021/10/04 00:42:23;;;;;;;4.25;3.85;;;;;;;17.22;70.10;100573.66;5010265;28;20439;-44
2021/10/04 00:44:49;;;;;;;4.40;4.00;;;;;;;17.22;70.14;100568.34;5009852;28;20057;-45
2021/10/04 00:47:15;;;;;;;4.22;3.92;;;;;;;17.22;69.93;100573.66;5009114;28;20030;-44
2021/10/04 00:49:41;;;;;;;4.28;3.88;;;;;;;17.22;70.04;100579.00;5008941;28;20434;-45
2021/10/04 00:52:06;;;;;;;4.50;4.00;;;;;;;17.22;70.28;100579.00;5009580;28;20029;-45
2021/10/04 00:54:32;;;;;;;4.63;4.20;;;;;;;17.22;69.94;100571.00;5009840;28;20074;-45
2021/10/04 00:56:57;;;;;;;3.97;3.58;;;;;;;17.22;70.17;100571.00;5010414;28;20034;-44
2021/10/04 00:59:22;;;;;;;5.35;4.50;;;;;;;17.21;70.00;100571.06;5009776;28;20037;-44
2021/10/04 01:01:47;;;;;;;4.55;4.15;;;;;;;17.22;70.09;100589.66;5008293;28;20049;-45
2021/10/04 01:04:13;;;;;;;4.10;3.72;;;;;;;17.22;70.20;100592.31;5010219;28;20030;-45
2021/10/04 01:06:38;;;;;;;4.18;3.83;;;;;;;17.22;70.05;100586.09;5009380;28;20041;-44
2021/10/04 01:09:03;;;;;;;4.25;3.85;;;;;;;17.22;69.99;100594.09;5009999;28;20486;-45
2021/10/04 01:11:29;;;;;;;4.32;4.00;;;;;;;17.22;70.11;100599.44;5009900;28;20017;-45
2021/10/04 01:13:54;;;;;;;4.35;3.95;;;;;;;17.22;70.00;100610.97;5007655;28;20030;-45
2021/10/04 01:16:21;;;;;;;4.75;4.30;;;;;;;17.22;70.23;100604.75;5010233;28;20034;-45
2021/10/04 01:18:46;;;;;;;4.93;4.43;;;;;;;17.21;70.10;100619.91;4992144;28;20026;-44
2021/10/04 01:21:11;;;;;;;5.05;3.70;;;;;;;17.22;70.13;100621.63;5005934;28;20026;-45
2021/10/04 01:23:37;;;;;;;4.35;3.83;;;;;;;17.22;70.24;100616.31;5009503;28;20034;-45
2021/10/04 01:26:02;;;;;;;4.25;3.85;;;;;;;17.21;70.06;100609.25;5013049;28;20042;-45
2021/10/04 01:28:28;;;;;;;4.03;3.65;;;;;;;17.21;70.20;100617.25;5013097;28;20100;-45
2021/10/04 01:30:54;;;;;;;4.65;4.25;;;;;;;17.21;70.21;100614.56;5013419;28;20492;-45
2021/10/04 01:33:19;;;;;;;4.35;3.95;;;;;;;17.22;70.19;100616.31;5013506;28;20034;-45
2021/10/04 01:35:45;;;;;;;3.95;3.58;;;;;;;17.22;70.15;100620.75;5011914;28;20109;-44
2021/10/04 01:38:11;;;;;;;3.95;3.65;;;;;;;17.22;70.20;100621.63;5009737;28;20030;-45
2021/10/04 01:40:38;;;;;;;3.95;3.65;;;;;;;17.21;70.20;100625.22;5012235;28;20041;-43
2021/10/04 01:43:03;;;;;;;3.90;3.60;;;;;;;17.21;70.11;100630.56;5013228;28;20021;-43
2021/10/04 01:45:29;;;;;;;3.63;3.33;;;;;;;17.21;70.06;100635.00;5012767;28;20349;-43
2021/10/04 01:47:59;;;;;;;3.70;3.38;;;;;;;17.21;70.23;100632.34;5011262;28;20025;-43
2021/10/04 01:50:26;;;;;;;3.50;3.20;;;;;;;17.21;70.23;100638.56;5013088;28;20036;-43
2021/10/04 01:52:51;;;;;;;4.22;3.72;;;;;;;17.21;70.02;100630.56;5011837;28;20364;-43
2021/10/04 01:55:16;;;;;;;3.38;3.08;;;;;;;17.20;70.15;100634.13;5012695;28;20494;-45
2021/10/04 01:57:42;;;;;;;3.40;3.10;;;;;;;17.20;70.02;100635.94;5011540;28;20084;-45
2021/10/04 02:00:11;;;;;;;3.33;3.03;;;;;;;17.21;70.00;100643.91;5012208;28;20041;-46
2021/10/04 02:02:36;;;;;;;4.25;3.15;;;;;;;17.21;69.93;100651.00;5013266;28;20121;-46
2021/10/04 02:05:02;;;;;;;3.38;3.08;;;;;;;17.21;70.20;100649.22;5012703;28;20113;-46
2021/10/04 02:07:28;;;;;;;3.45;3.15;;;;;;;17.20;70.18;100652.78;5008690;28;20017;-45
2021/10/04 02:09:53;;;;;;;3.42;3.03;;;;;;;17.20;70.07;100652.78;5013224;28;20545;-45
2021/10/04 02:12:18;;;;;;;3.65;3.30;;;;;;;17.20;70.23;100650.13;5009056;28;20458;-45
2021/10/04 02:14:43;;;;;;;3.50;3.20;;;;;;;17.20;70.03;100650.13;5012504;28;20026;-46
2021/10/04 02:17:09;;;;;;;3.25;2.95;;;;;;;17.20;70.10;100666.13;5013191;28;20018;-47
2021/10/04 02:19:34;;;;;;;3.05;2.85;;;;;;;17.19;70.06;100669.72;5013738;28;20060;-47
2021/10/04 02:22:00;;;;;;;3.58;3.28;;;;;;;17.19;70.10;100683.03;5011292;28;20736;-47
2021/10/04 02:24:26;;;;;;;3.03;2.83;;;;;;;17.20;70.08;100687.44;5012147;28;20052;-47
2021/10/04 02:26:52;;;;;;;2.70;2.50;;;;;;;17.19;70.06;100685.69;5011818;28;20407;-46
2021/10/04 02:29:17;;;;;;;2.65;2.45;;;;;;;17.20;70.07;100689.25;5012535;28;20036;-46
2021/10/04 02:31:43;;;;;;;2.75;2.55;;;;;;;17.20;70.00;100684.78;5011494;28;20046;-47
2021/10/04 02:34:08;;;;;;;2.78;2.58;;;;;;;17.18;70.04;100678.66;5012541;28;20038;-48
2021/10/04 02:36:33;;;;;;;2.83;2.63;;;;;;;17.18;69.98;100684.81;5010985;28;20061;-47
2021/10/04 02:38:58;;;;;;;2.42;2.22;;;;;;;17.18;70.04;100684.81;5011557;28;20041;-46
2021/10/04 02:41:24;;;;;;;2.92;2.60;;;;;;;17.18;70.06;100694.63;5011139;28;20022;-47
2021/10/04 02:43:49;;;;;;;2.80;2.50;;;;;;;17.18;70.08;100705.28;5011646;28;20036;-47
2021/10/04 02:46:15;;;;;;;2.80;2.60;;;;;;;17.20;70.10;100703.41;5010779;28;20048;-47
2021/10/04 02:48:40;;;;;;;2.55;2.35;;;;;;;17.18;70.11;100695.47;5011986;28;20112;-46
2021/10/04 02:51:06;;;;;;;2.53;2.33;;;;;;;17.18;70.04;100700.81;5010633;28;20029;-47
2021/10/04 02:53:31;;;;;;;2.20;2.00;;;;;;;17.18;70.19;100705.28;5010063;28;20029;-46
2021/10/04 02:55:57;;;;;;;2.75;2.55;;;;;;;17.18;70.15;100706.13;5012257;28;20025;-47
2021/10/04 02:58:22;;;;;;;2.60;2.40;;;;;;;17.19;70.10;100707.03;5011484;28;20091;-47
2021/10/04 03:00:47;;;;;;;3.05;2.75;;;;;;;17.18;70.06;100719.47;5010753;28;20029;-47
2021/10/04 03:03:13;;;;;;;2.38;2.13;;;;;;;17.18;70.13;100726.63;5012353;28;20072;-47
2021/10/04 03:05:38;;;;;;;2.58;2.38;;;;;;;17.18;70.19;100726.63;5008871;28;20097;-47
2021/10/04 03:08:05;;;;;;;2.35;2.15;;;;;;;17.17;70.06;100720.41;5011302;28;20029;-47
2021/10/04 03:10:31;;;;;;;2.70;2.50;;;;;;;17.18;70.15;100718.63;5011498;28;20025;-45
2021/10/04 03:12:57;;;;;;;2.25;2.05;;;;;;;17.19;69.97;100728.34;5011044;28;20045;-46
2021/10/04 03:15:22;;;;;;;2.17;2.08;;;;;;;17.18;69.97;100729.28;5009546;28;20018;-47
2021/10/04 03:17:48;;;;;;;2.25;2.05;;;;;;;17.17;70.20;100730.19;5011428;28;20383;-47
2021/10/04 03:20:13;;;;;;;2.33;2.13;;;;;;;17.16;70.19;100718.66;5011032;28;20061;-47
2021/10/04 03:22:38;;;;;;;2.53;2.33;;;;;;;17.17;70.18;100714.19;5009841;28;20028;-47
2021/10/04 03:25:05;;;;;;;2.30;2.10;;;;;;;17.17;70.03;100728.41;5010619;28;20073;-47
2021/10/04 03:27:31;;;;;;;2.17;2.08;;;;;;;17.17;70.03;100747.06;5010300;28;20040;-48
2021/10/04 03:29:56;;;;;;;2.20;1.98;;;;;;;17.16;70.07;100747.97;5008118;28;20025;-47
2021/10/04 03:32:21;;;;;;;2.40;2.20;;;;;;;17.16;69.94;100749.75;5006998;28;20025;-47
2021/10/04 03:34:47;;;;;;;2.67;2.45;;;;;;;17.17;70.16;100748.84;5005843;28;20033;-44
2021/10/04 03:37:15;;;;;;;2.55;2.35;;;;;;;17.17;70.11;100740.84;5002200;28;20026;-46
2021/10/04 03:39:40;;;;;;;2.13;1.92;;;;;;;17.16;70.08;100742.66;5009192;28;20506;-47
2021/10/04 03:42:06;;;;;;;2.05;1.85;;;;;;;17.16;70.11;100739.09;5010368;28;20145;-47
2021/10/04 03:44:31;;;;;;;2.33;2.13;;;;;;;17.15;70.09;100732.03;5010779;28;20113;-45
2021/10/04 03:46:56;;;;;;;1.98;1.80;;;;;;;17.16;69.99;100747.09;5010615;28;20022;-46
2021/10/04 03:49:22;;;;;;;2.17;1.98;;;;;;;17.15;70.04;100754.25;5009775;28;20037;-47
2021/10/04 03:51:47;;;;;;;2.40;2.20;;;;;;;17.16;70.08;100749.75;5010278;28;20026;-47
2021/10/04 03:54:12;;;;;;;2.55;2.35;;;;;;;17.16;70.04;100744.44;5010622;28;20089;-47
2021/10/04 03:56:38;;;;;;;2.40;2.20;;;;;;;17.15;70.18;100762.25;5009919;28;20030;-46
2021/10/04 03:59:03;;;;;;;2.67;2.47;;;;;;;17.15;70.04;100766.69;5010337;28;20029;-46
2021/10/04 04:01:28;;;;;;;2.20;2.00;;;;;;;17.15;70.11;100777.34;5007783;28;20049;-47
2021/10/04 04:03:54;;;;;;;3.00;2.70;;;;;;;17.15;70.18;100780.00;5006693;28;20483;-47
2021/10/04 04:06:20;;;;;;;3.03;2.72;;;;;;;17.14;70.20;100781.78;5010222;28;20092;-47
2021/10/04 04:08:45;;;;;;;2.35;2.15;;;;;;;17.15;70.09;100780.91;5005767;28;20027;-47
2021/10/04 04:11:11;;;;;;;2.72;2.53;;;;;;;17.14;70.11;100773.81;5007722;28;20439;-47
2021/10/04 04:13:36;;;;;;;2.83;2.53;;;;;;;17.13;70.11;100777.41;5008928;28;20034;-48
2021/10/04 04:16:01;;;;;;;2.63;2.42;;;;;;;17.14;70.24;100779.13;5008244;28;20029;-46
2021/10/04 04:18:27;;;;;;;2.60;2.40;;;;;;;17.15;69.94;100785.34;5004977;28;20018;-47
2021/10/04 04:20:52;;;;;;;2.58;2.25;;;;;;;17.14;69.91;100780.94;5008827;28;20037;-47
2021/10/04 04:23:17;;;;;;;2.60;2.13;;;;;;;17.13;70.02;100777.41;5007627;28;20449;-47
2021/10/04 04:25:43;;;;;;;2.70;2.50;;;;;;;17.13;70.06;100787.19;5010531;28;20430;-47
2021/10/04 04:28:08;;;;;;;2.55;2.30;;;;;;;17.13;70.00;100798.72;5005167;28;20608;-47
2021/10/04 04:30:33;;;;;;;2.65;2.45;;;;;;;17.13;70.05;100804.03;5007479;28;20435;-47
2021/10/04 04:32:59;;;;;;;2.85;2.65;;;;;;;17.13;70.11;100792.50;5010299;28;20022;-47
2021/10/04 04:35:24;;;;;;;2.67;2.47;;;;;;;17.13;70.08;100797.84;5008994;28;20025;-47
2021/10/04 04:37:49;;;;;;;2.95;2.65;;;;;;;17.13;70.14;100803.16;5009539;28;20088;-46
2021/10/04 04:40:19;;;;;;;2.83;2.53;;;;;;;17.13;70.00;100808.50;5008281;28;20033;-47
2021/10/04 04:42:46;;;;;;;2.95;2.65;;;;;;;17.13;70.02;100811.16;5008099;28;20026;-47
2021/10/04 04:45:15;;;;;;;2.72;2.53;;;;;;;17.13;70.05;100819.16;5008087;28;20026;-47
2021/10/04 04:47:40;;;;;;;2.95;2.75;;;;;;;17.12;70.07;100817.41;5016190;28;20033;-47
2021/10/04 04:50:06;;;;;;;3.00;2.75;;;;;;;17.11;70.18;100827.19;5010565;28;20384;-47
2021/10/04 04:52:31;;;;;;;3.08;2.58;;;;;;;17.11;70.19;100832.53;5006236;28;20030;-47
2021/10/04 04:54:57;;;;;;;3.35;2.67;;;;;;;17.12;70.06;100833.41;5007839;28;20029;-47
2021/10/04 04:57:22;;;;;;;2.70;2.50;;;;;;;17.10;70.19;100829.94;5005607;28;20522;-46
2021/10/04 04:59:47;;;;;;;2.60;2.40;;;;;;;17.11;70.05;100837.00;5006932;28;20549;-47
2021/10/04 05:02:13;;;;;;;2.85;2.65;;;;;;;17.10;70.08;100835.28;5010971;28;20045;-48
2021/10/04 05:04:38;;;;;;;2.90;2.60;;;;;;;17.10;69.96;100838.78;5009924;28;20026;-47
2021/10/04 05:07:04;;;;;;;2.90;2.70;;;;;;;17.09;70.08;100841.50;5011520;28;20041;-47
2021/10/04 05:09:29;;;;;;;2.83;2.63;;;;;;;17.09;70.10;100842.38;5012199;28;20045;-48
2021/10/04 05:11:54;;;;;;;2.50;2.28;;;;;;;17.09;70.19;100846.81;5011650;28;20037;-47
2021/10/04 05:14:19;;;;;;;3.00;2.78;;;;;;;17.09;70.04;100844.16;5008222;28;20219;-48
2021/10/04 05:16:46;;;;;;;3.00;2.65;;;;;;;17.10;69.95;100861.91;5013128;28;20105;-46
2021/10/04 05:19:12;;;;;;;3.15;2.85;;;;;;;17.10;70.16;100867.25;5011590;28;20025;-47
2021/10/04 05:21:37;;;;;;;2.70;2.50;;;;;;;17.09;70.00;100865.47;5013505;28;20032;-46
2021/10/04 05:24:03;;;;;;;3.67;2.60;;;;;;;17.09;70.18;100869.03;5013108;28;20026;-47
2021/10/04 05:26:28;;;;;;;3.03;2.78;;;;;;;17.08;70.20;100877.06;5009676;28;20451;-47
2021/10/04 05:28:53;;;;;;;3.00;2.70;;;;;;;17.09;70.05;100870.81;5010239;28;20507;-47
2021/10/04 05:31:19;;;;;;;2.80;2.60;;;;;;;17.09;70.04;100868.16;5012215;28;20029;-48
2021/10/04 05:33:44;;;;;;;4.13;3.13;;;;;;;17.07;70.05;100870.84;5011487;28;20113;-46
2021/10/04 05:36:10;;;;;;;2.85;2.65;;;;;;;17.07;70.03;100865.53;5010604;28;20054;-47
2021/10/04 05:38:35;;;;;;;3.67;2.85;;;;;;;17.07;69.96;100867.34;5010367;28;20037;-47
2021/10/04 05:41:01;;;;;;;2.50;2.30;;;;;;;17.08;70.10;100866.41;5007832;28;20437;-47
2021/10/04 05:43:26;;;;;;;3.30;3.00;;;;;;;17.06;70.10;100882.44;5012016;28;20080;-48
2021/10/04 05:45:51;;;;;;;3.00;2.80;;;;;;;17.07;70.20;100873.53;5010345;28;20084;-44
2021/10/04 05:48:17;;;;;;;3.45;3.15;;;;;;;17.07;70.11;100878.00;5011873;28;20033;-47
2021/10/04 05:50:42;;;;;;;3.70;3.33;;;;;;;17.07;70.17;100886.00;5009396;28;20588;-47
2021/10/04 05:53:08;;;;;;;2.60;2.40;;;;;;;17.06;69.97;100885.13;5012818;28;20400;-47
2021/10/04 05:55:33;;;;;;;3.40;2.67;;;;;;;17.06;70.15;100879.78;5012800;28;20022;-47
2021/10/04 05:57:58;;;;;;;3.28;2.72;;;;;;;17.07;70.08;100878.00;5012587;28;20395;-47
2021/10/04 06:00:24;;;;;;;2.78;2.58;;;;;;;17.05;70.12;100883.34;5011474;28;20022;-44
2021/10/04 06:02:50;;;;;;;2.80;2.60;;;;;;;17.05;70.12;100873.56;5009692;28;20021;-46
2021/10/04 06:05:15;;;;;;;3.00;2.67;;;;;;;17.04;69.79;100876.28;5006092;28;20028;-47
2021/10/04 06:07:41;;;;;;;3.70;3.22;;;;;;;17.05;70.12;100899.34;5010954;28;20049;-47
2021/10/04 06:10:08;;;;;;;3.05;2.75;;;;;;;17.04;70.00;100895.78;5014430;28;20025;-47
2021/10/04 06:12:33;;;;;;;3.15;2.80;;;;;;;17.03;70.09;100904.72;5009087;28;20025;-47
2021/10/04 06:15:00;;;;;;;3.10;2.90;;;;;;;17.04;70.09;100905.59;5012665;28;20044;-48
2021/10/04 06:17:26;;;;;;;3.13;2.83;;;;;;;17.03;70.08;100910.03;5011333;28;20129;-47
2021/10/04 06:19:53;;;;;;;3.45;3.10;;;;;;;17.04;70.17;100906.44;5012143;28;20096;-47
2021/10/04 06:22:18;;;;;;;3.13;2.85;;;;;;;17.03;70.24;100903.81;5011234;28;20026;-47
2021/10/04 06:24:44;;;;;;;3.05;2.70;;;;;;;17.03;70.21;100912.69;5013036;28;20032;-47
2021/10/04 06:27:09;;;;;;;3.50;3.20;;;;;;;17.04;70.16;100921.59;5011426;28;20025;-47
2021/10/04 06:29:34;;;;;;;3.20;2.90;;;;;;;17.03;69.86;100912.69;5008247;28;20036;-47
2021/10/04 06:31:59;;;;;;;3.58;3.28;;;;;;;17.02;70.15;100918.97;5012503;28;20113;-47
2021/10/04 06:34:25;;;;;;;3.35;3.03;;;;;;;17.03;70.14;100914.47;5010588;28;20064;-45
2021/10/04 06:36:50;;;;;;;3.22;2.92;;;;;;;17.03;70.22;100931.34;5009776;28;20033;-45
2021/10/04 06:39:16;;;;;;;3.40;3.10;;;;;;;17.02;70.05;100950.94;5011169;28;20108;-43
2021/10/04 06:41:41;;;;;;;3.28;2.80;;;;;;;17.02;70.11;100956.25;5010442;28;20033;-45
2021/10/04 06:44:08;;;;;;;3.75;3.05;;;;;;;17.02;70.25;100955.38;5012423;28;20028;-47
2021/10/04 06:46:34;;;;;;;3.53;3.22;;;;;;;17.01;70.14;100959.81;5026713;28;20096;-47
2021/10/04 06:48:59;;;;;;;3.83;3.53;;;;;;;17.02;70.18;100960.72;5007920;28;20037;-47
2021/10/04 06:51:25;;;;;;;3.78;3.45;;;;;;;17.02;70.11;100958.94;5008578;28;20033;-47
2021/10/04 06:53:50;;;;;;;3.95;3.60;;;;;;;17.02;70.08;100966.91;5011180;28;20499;-47
2021/10/04 06:56:16;;;;;;;3.88;3.47;;;;;;;17.02;70.19;100976.69;5012444;28;20421;-47
2021/10/04 06:58:41;;;;;;;3.50;3.20;;;;;;;17.01;70.20;100980.28;5011679;28;20072;-47
2021/10/04 07:01:06;;;;;;;4.10;3.65;;;;;;;17.01;70.18;100981.13;5009695;28;20553;-47
2021/10/04 07:03:32;;;;;;;4.25;3.85;;;;;;;17.00;70.21;100982.06;5010943;28;20026;-48
2021/10/04 07:05:59;;;;;;;4.10;3.67;;;;;;;17.01;70.19;100996.28;5011137;28;20492;-47
2021/10/04 07:08:24;;;;;;;4.05;3.53;;;;;;;16.99;70.03;100993.66;5007334;28;20037;-47
2021/10/04 07:10:50;;;;;;;3.90;3.50;;;;;;;17.00;70.30;100992.72;5011537;28;20030;-47
2021/10/04 07:13:15;;;;;;;3.92;3.38;;;;;;;17.00;70.20;100990.06;5008921;28;20022;-47
2021/10/04 07:15:40;;;;;;;3.85;3.40;;;;;;;17.00;70.12;101000.72;5009713;28;20057;-47
2021/10/04 07:18:06;;;;;;;3.78;3.38;;;;;;;16.98;70.22;100989.25;5012516;28;20033;-47
2021/10/04 07:20:31;;;;;;;3.70;3.40;;;;;;;16.99;70.16;100996.31;5011353;28;20034;-47
2021/10/04 07:22:58;;;;;;;3.90;3.58;;;;;;;16.98;70.16;101005.25;5010794;28;20037;-47
2021/10/04 07:25:24;;;;;;;3.70;3.40;;;;;;;16.98;70.12;100997.25;5009957;28;20030;-47
2021/10/04 07:27:51;;;;;;;3.65;3.35;;;;;;;16.98;70.16;101002.56;5009977;28;20053;-47
2021/10/04 07:30:16;;;;;;;4.13;3.72;;;;;;;16.98;70.17;101004.34;5011168;28;20422;-46
2021/10/04 07:32:41;;;;;;;3.80;3.50;;;;;;;16.98;70.20;100997.25;5009511;28;20022;-47
2021/10/04 07:35:07;;;;;;;3.30;3.00;;;;;;;16.97;70.17;101006.13;5012011;28;20395;-48
2021/10/04 07:37:33;;;;;;;3.88;3.50;;;;;;;16.98;70.21;101017.69;5010642;28;20411;-47
2021/10/04 07:39:59;;;;;;;4.18;3.78;;;;;;;16.95;70.30;101018.66;5011579;28;20051;-48
2021/10/04 07:42:24;;;;;;;4.22;3.20;;;;;;;16.97;70.15;101015.94;5010894;28;20387;-44
2021/10/04 07:44:50;;;;;;;3.97;3.67;;;;;;;16.97;70.19;101038.09;5010900;28;20538;-47
2021/10/04 07:47:16;;;;;;;3.72;2.97;;;;;;;16.96;70.08;101032.81;5008339;28;20033;-46
2021/10/04 07:49:42;;;;;;;3.78;3.47;;;;;;;16.96;70.24;101039.03;5008085;28;20128;-48
2021/10/04 07:52:07;;;;;;;3.15;2.88;;;;;;;16.95;70.34;101039.97;5012015;28;20417;-46
2021/10/04 07:54:32;;;;;;;3.70;3.35;;;;;;;16.96;70.12;101046.16;5009847;28;20080;-45
2021/10/04 07:56:58;;;;;;;3.70;3.30;;;;;;;16.96;70.30;101052.34;5006663;28;20021;-45
2021/10/04 07:59:23;;;;;;;3.40;3.10;;;;;;;16.95;70.32;101045.28;5005916;28;20029;-45
2021/10/04 08:01:48;;;;;;;3.42;3.13;;;;;;;16.93;70.09;101042.66;5004462;28;20025;-45
2021/10/04 08:04:13;;;;;;;3.85;3.45;;;;;;;16.93;70.19;101040.00;5004871;28;20091;-45
2021/10/04 08:06:39;;;;;;;3.05;2.75;;;;;;;16.94;70.18;101048.84;5008235;28;20053;-45
2021/10/04 08:09:04;;;;;;;3.42;3.13;;;;;;;16.93;70.37;101050.66;5009909;28;20036;-45
2021/10/04 08:11:29;;;;;;;3.08;2.83;;;;;;;16.94;70.18;101054.19;5008488;28;20121;-45
2021/10/04 08:13:55;;;;;;;3.63;3.33;;;;;;;16.94;70.03;101048.84;5005383;28;20549;-45
2021/10/04 08:16:22;;;;;;;3.42;3.13;;;;;;;16.93;70.29;101057.78;5007624;28;20033;-45
2021/10/04 08:18:48;;;;;;;3.28;2.97;;;;;;;16.93;70.60;101053.31;5007446;28;20022;-45
2021/10/04 08:21:15;;;;;;;3.30;3.00;;;;;;;16.92;70.18;101067.56;5005674;28;20552;-47
2021/10/04 08:23:40;;;;;;;3.05;2.75;;;;;;;16.93;70.26;101073.75;5006138;28;20037;-45
2021/10/04 08:26:06;;;;;;;3.13;2.83;;;;;;;16.92;70.24;101093.34;5009439;28;20033;-45
2021/10/04 08:28:32;;;;;;;2.80;2.60;;;;;;;16.92;70.25;101104.88;5006547;28;20037;-46
2021/10/04 08:30:57;;;;;;;3.20;2.90;;;;;;;16.92;70.55;101104.00;5005880;28;20459;-46
2021/10/04 08:33:22;;;;;;;2.67;2.47;;;;;;;16.92;70.33;101099.53;5005975;28;20395;-47
2021/10/04 08:35:48;;;;;;;4.00;2.88;;;;;;;16.91;70.23;101099.59;5005814;28;20132;-47
2021/10/04 08:38:15;;;;;;;3.17;2.60;;;;;;;16.91;70.42;101094.25;5003579;28;20467;-45
2021/10/04 08:40:40;;;;;;;2.42;2.22;;;;;;;16.90;70.45;101087.16;5007280;28;20467;-45
2021/10/04 08:43:06;;;;;;;3.38;2.70;;;;;;;16.90;70.23;101085.38;5001741;28;20029;-46
2021/10/04 08:45:33;;;;;;;3.10;2.80;;;;;;;16.90;70.36;101076.50;5006953;28;20033;-46
2021/10/04 08:48:00;;;;;;;2.58;2.38;;;;;;;16.89;70.19;101075.66;5004393;28;20053;-45
2021/10/04 08:50:28;;;;;;;3.78;2.75;;;;;;;16.90;70.36;101074.72;5007270;28;20151;-46
2021/10/04 08:52:54;;;;;;;2.72;2.50;;;;;;;16.89;70.24;101067.66;5007647;28;20018;-45
2021/10/04 08:55:21;;;;;;;3.10;2.80;;;;;;;16.89;70.31;101072.09;5006573;28;20297;-46
2021/10/04 08:57:47;;;;;;;2.83;2.60;;;;;;;16.89;70.26;101088.09;5006993;28;20495;-46
2021/10/04 09:00:12;;;;;;;3.13;2.83;;;;;;;16.89;70.15;101104.06;5007207;28;20034;-46
2021/10/04 09:02:37;;;;;;;2.60;2.40;;;;;;;16.89;70.33;101104.06;5007534;28;20466;-45
2021/10/04 09:05:13;;;;;;;2.17;1.98;;;;;;;16.88;70.22;101097.00;5006369;28;20041;-46
2021/10/04 09:07:46;;;;;;;2.30;2.10;;;;;;;16.87;70.25;101080.13;5007575;28;20029;-45
2021/10/04 09:10:15;;;;;;;2.53;2.33;;;;;;;16.87;70.41;101071.28;5004819;28;20030;-46
2021/10/04 09:12:55;;;;;;;2.67;2.47;;;;;;;16.87;70.38;101079.28;5006583;28;20400;-45
2021/10/04 09:15:38;;;;;;;2.42;2.20;;;;;;;16.87;70.05;101092.59;5005573;28;20041;-46
2021/10/04 09:18:15;;;;;;;2.35;2.15;;;;;;;16.89;70.28;101104.06;5004881;28;20030;-45
2021/10/04 09:20:58;;;;;;;2.60;2.40;;;;;;;16.87;70.20;101092.59;5006737;28;20057;-46
2021/10/04 09:23:35;;;;;;;2.42;2.22;;;;;;;16.87;70.40;101087.28;5003885;28;20018;-45
2021/10/04 09:26:02;;;;;;;2.15;1.98;;;;;;;16.85;70.26;101081.09;5006843;28;20227;-45
2021/10/04 09:28:34;;;;;;;2.25;2.05;;;;;;;16.86;70.22;101082.84;5005979;28;20029;-45
2021/10/04 09:31:15;;;;;;;2.30;2.10;;;;;;;16.85;70.29;101087.31;5001363;28;20548;-45
2021/10/04 09:34:10;;;;;;;2.30;2.10;;;;;;;16.85;70.44;101086.44;5002875;28;20112;-45
2021/10/04 09:36:41;;;;;;;2.33;2.13;;;;;;;16.85;70.30;101091.75;5003453;28;20503;-46
2021/10/04 09:39:18;;;;;;;2.08;1.95;;;;;;;16.85;70.37;101091.75;5007140;28;20033;-45
2021/10/04 09:42:02;;;;;;;2.35;2.15;;;;;;;16.85;70.35;101097.09;5005182;28;20109;-45
2021/10/04 09:44:50;;;;;;;2.25;2.05;;;;;;;16.84;70.19;101090.88;5005523;28;20025;-44
2021/10/04 09:47:25;;;;;;;2.13;1.92;;;;;;;16.84;70.27;101095.34;5009322;28;20048;-44
2021/10/04 09:49:54;;;;;;;3.03;1.98;;;;;;;16.84;70.36;101095.34;5006723;28;20764;-44
2021/10/04 09:52:34;;;;;;;2.28;2.08;;;;;;;16.84;70.26;101106.00;5009835;28;20037;-43
2021/10/04 09:55:00;;;;;;;2.42;2.00;;;;;;;16.83;70.18;101113.09;5010745;28;20026;-44
2021/10/04 09:57:25;;;;;;;2.20;2.00;;;;;;;16.83;70.21;101125.53;5008186;28;20100;-44
2021/10/04 09:59:50;;;;;;;1.98;1.88;;;;;;;16.83;70.28;101126.44;5009293;28;20053;-43
2021/10/04 10:02:18;;;;;;;1.58;1.48;;;;;;;16.82;70.35;101127.34;5008566;28;20102;-45
2021/10/04 10:04:46;;;;;;;2.10;1.90;;;;;;;16.82;70.32;101122.03;5006649;28;20534;-43
2021/10/04 10:07:12;;;;;;;2.20;2.00;;;;;;;16.83;70.26;101120.22;5009518;28;20042;-44
2021/10/04 10:09:38;;;;;;;2.30;1.80;;;;;;;16.82;70.20;101116.69;5007731;28;20040;-43
2021/10/04 10:12:05;;;;;;;1.70;1.50;;;;;;;16.83;70.22;101117.56;5009006;28;20072;-44
2021/10/04 10:14:38;;;;;;;1.83;1.63;;;;;;;16.82;70.21;101111.38;5010013;28;20088;-43
2021/10/04 10:17:04;;;;;;;1.95;1.75;;;;;;;16.81;70.10;101114.97;5010169;28;20030;-43
2021/10/04 10:19:31;;;;;;;2.00;1.80;;;;;;;16.82;70.21;101123.81;5009477;28;20455;-44
2021/10/04 10:22:19;;;;;;;1.85;1.75;;;;;;;16.80;70.03;101127.41;5008692;28;20104;-43
2021/10/04 10:24:45;;;;;;;2.03;1.83;;;;;;;16.80;70.19;101127.41;5008896;28;20522;-43
2021/10/04 10:27:12;;;;;;;1.75;1.65;;;;;;;16.79;70.10;101120.31;5007116;28;20041;-44
2021/10/04 10:29:39;;;;;;;1.73;1.52;;;;;;;16.78;70.13;101113.22;5003860;28;20417;-44
2021/10/04 10:32:18;;;;;;;1.85;1.75;;;;;;;16.80;70.08;101111.41;5008898;28;20030;-44
2021/10/04 10:34:44;;;;;;;1.60;1.50;;;;;;;16.79;70.21;101109.66;5023969;28;20033;-43
2021/10/04 10:37:12;;;;;;;2.42;1.77;;;;;;;16.80;70.03;101123.84;5004207;28;20068;-43
2021/10/04 10:39:41;;;;;;;2.38;2.17;;;;;;;16.80;69.99;101126.50;5009158;28;20172;-43
2021/10/04 10:42:31;;;;;;;2.28;1.75;;;;;;;16.79;70.15;101133.66;5009243;28;20152;-43
2021/10/04 10:44:56;;;;;;;1.88;1.77;;;;;;;16.78;70.13;101129.22;5006139;28;20036;-44
2021/10/04 10:47:37;;;;;;;1.90;1.70;;;;;;;16.77;70.09;101130.13;5008736;28;20034;-44
2021/10/04 10:50:08;;;;;;;1.77;1.67;;;;;;;16.78;70.10;101139.88;5007829;28;20043;-44
2021/10/04 10:52:34;;;;;;;;;;;;;;;16.79;69.98;101135.44;5008443;28;20084;-44
2021/10/04 10:55:00;;;;;;;1.83;1.73;;;;;;;16.75;70.26;101126.66;5008519;28;19923;-43
2021/10/04 10:57:47;;;;;;;1.60;1.40;;;;;;;16.76;70.24;101136.38;5007263;28;20551;-44
2021/10/04 11:00:16;;;;;;;1.40;1.30;;;;;;;16.75;70.00;101139.97;5007012;28;20029;-45
2021/10/04 11:02:54;;;;;;;1.58;1.48;;;;;;;16.76;70.09;101148.81;5007212;28;20040;-45
2021/10/04 11:05:38;;;;;;;1.60;1.50;;;;;;;16.76;70.08;101173.69;5009542;28;20030;-45
2021/10/04 11:08:28;;;;;;;1.60;1.50;;;;;;;16.76;70.08;101163.03;5009253;28;20493;-45
2021/10/04 11:10:53;;;;;;;1.77;1.67;;;;;;;16.74;70.16;101161.31;5007981;28;20061;-45
2021/10/04 11:13:19;;;;;;;1.60;1.40;;;;;;;16.73;70.21;101160.44;5009155;28;20060;-47
2021/10/04 11:15:44;;;;;;;1.48;1.38;;;;;;;16.74;70.08;101159.50;5009936;28;20061;-46
2021/10/04 11:18:10;;;;;;;1.50;1.33;;;;;;;16.73;70.04;101148.91;5008504;28;20034;-45
2021/10/04 11:20:36;;;;;;;1.65;1.40;;;;;;;16.73;70.17;101157.78;5005961;28;20034;-45
2021/10/04 11:23:08;;;;;;;1.70;1.60;;;;;;;16.74;69.99;101158.66;5008294;28;20495;-45